createdAt,value
2022-08-09T00:01:14.377Z,7.05
2022-08-09T00:06:23.127Z,6.03
2022-08-09T00:11:55.001Z,5.43
2022-08-09T00:24:49.269Z,7.35
2022-08-09T00:30:24.335Z,3.75
2022-08-09T00:35:16.844Z,3.38
2022-08-09T00:40:22.515Z,7.97
2022-08-09T00:45:35.025Z,10.68
2022-08-09T00:50:39.129Z,4.30
2022-08-09T00:56:04.749Z,3.67
2022-08-09T01:01:16.230Z,3.38
2022-08-09T01:06:35.195Z,8.05
2022-08-09T01:12:09.670Z,3.58
2022-08-09T01:17:23.473Z,4.38
2022-08-09T01:23:03.617Z,3.25
2022-08-09T01:28:11.702Z,4.40
2022-08-09T01:33:17.812Z,6.82
2022-08-09T01:38:25.642Z,7.15
2022-08-09T01:43:50.549Z,5.60
2022-08-09T01:49:09.450Z,5.43
2022-08-09T01:54:16.286Z,4.43
2022-08-09T01:59:23.420Z,3.25
2022-08-09T02:04:29.616Z,4.10
2022-08-09T02:09:42.154Z,5.00
2022-08-09T02:14:51.643Z,2.85
2022-08-09T02:19:55.836Z,3.30
2022-08-09T02:25:02.599Z,5.38
2022-08-09T02:30:09.809Z,3.55
2022-08-09T02:41:10.617Z,5.45
2022-08-09T02:46:18.269Z,3.08
2022-08-09T02:51:24.241Z,7.70
2022-08-09T02:56:34.147Z,4.45
2022-08-09T03:02:05.723Z,4.20
2022-08-09T03:07:13.935Z,5.07
2022-08-09T03:12:20.741Z,4.75
2022-08-09T03:17:27.605Z,4.40
2022-08-09T03:22:41.811Z,4.90
2022-08-09T03:27:51.428Z,4.43
2022-08-09T03:32:57.311Z,3.78
2022-08-09T03:38:02.554Z,6.63
2022-08-09T03:43:08.064Z,5.22
2022-08-09T03:48:19.114Z,4.40
2022-08-09T03:53:36.947Z,3.05
2022-08-09T03:58:42.252Z,4.95
2022-08-09T04:04:00.436Z,5.88
2022-08-09T04:09:13.628Z,8.02
2022-08-09T04:14:52.845Z,4.75
2022-08-09T04:19:56.401Z,5.55
2022-08-09T04:25:01.350Z,5.03
2022-08-09T04:30:10.260Z,5.32
2022-08-09T04:35:16.975Z,4.10
2022-08-09T04:40:35.956Z,5.97
2022-08-09T04:45:53.008Z,12.02
2022-08-09T04:51:03.977Z,4.03
2022-08-09T04:56:08.825Z,9.20
2022-08-09T05:01:16.427Z,9.65
2022-08-09T05:06:27.829Z,7.60
2022-08-09T05:11:35.969Z,4.38
2022-08-09T05:16:43.443Z,9.15
2022-08-09T05:22:05.260Z,5.25
2022-08-09T05:27:29.150Z,8.73
2022-08-09T05:32:36.417Z,7.93
2022-08-09T05:37:48.000Z,8.05
2022-08-09T05:42:54.111Z,8.43
2022-08-09T05:48:01.286Z,5.60
2022-08-09T05:53:05.640Z,11.65
2022-08-09T05:58:18.381Z,11.05
2022-08-09T06:03:23.704Z,9.15
2022-08-09T06:08:27.520Z,9.25
2022-08-09T06:13:33.927Z,11.27
2022-08-09T06:18:44.248Z,10.48
2022-08-09T06:23:58.688Z,14.82
2022-08-09T06:29:08.300Z,18.02
2022-08-09T06:34:26.153Z,7.05
2022-08-09T06:39:49.321Z,17.27
2022-08-09T06:45:20.440Z,10.27
2022-08-09T06:50:46.275Z,8.60
2022-08-09T06:55:50.363Z,12.07
2022-08-09T07:00:58.725Z,7.82
2022-08-09T07:06:06.045Z,13.55
2022-08-09T07:11:12.362Z,9.73
2022-08-09T07:16:42.706Z,9.98
2022-08-09T07:21:55.750Z,8.13
2022-08-09T07:27:02.883Z,13.35
2022-08-09T07:32:07.585Z,16.77
2022-08-09T07:37:15.845Z,13.05
2022-08-09T07:42:19.860Z,6.53
2022-08-09T07:47:49.684Z,14.70
2022-08-09T07:53:02.801Z,9.82
2022-08-09T07:58:13.131Z,14.02
2022-08-09T08:03:17.964Z,7.47
2022-08-09T08:09:01.126Z,16.48
2022-08-09T08:13:56.813Z,8.65
2022-08-09T08:19:02.800Z,7.90
2022-08-09T08:24:12.084Z,6.47
2022-08-09T08:29:28.057Z,12.35
2022-08-09T08:34:33.745Z,6.43
2022-08-09T08:39:44.286Z,4.68
2022-08-09T08:44:53.082Z,5.90
2022-08-09T08:49:59.438Z,9.95
2022-08-09T08:55:09.108Z,9.73
2022-08-09T09:00:20.645Z,8.88
2022-08-09T09:05:57.772Z,7.30
2022-08-09T09:10:58.657Z,11.98
2022-08-09T09:16:02.991Z,9.50
2022-08-09T09:21:08.305Z,6.43
2022-08-09T09:26:15.461Z,5.88
2022-08-09T09:32:03.524Z,4.22
2022-08-09T09:36:53.705Z,12.40
2022-08-09T09:42:01.327Z,19.67
2022-08-09T09:47:08.014Z,8.85
2022-08-09T09:52:33.378Z,6.38
2022-08-09T09:58:02.799Z,8.13
2022-08-09T10:03:11.697Z,7.50
2022-08-09T10:13:45.013Z,10.88
2022-08-09T10:18:54.338Z,9.48
2022-08-09T10:24:04.031Z,7.03
2022-08-09T10:29:21.366Z,10.23
2022-08-09T10:34:38.173Z,9.13
2022-08-09T10:39:49.479Z,4.82
2022-08-09T10:45:01.023Z,4.72
2022-08-09T10:50:15.298Z,5.07
2022-08-09T10:55:25.245Z,11.85
2022-08-09T11:00:56.914Z,6.22
2022-08-09T11:06:22.940Z,4.35
2022-08-09T11:11:51.659Z,6.15
2022-08-09T11:16:58.217Z,9.13
2022-08-09T11:22:10.636Z,7.03
2022-08-09T11:28:05.486Z,3.73
2022-08-09T11:33:06.513Z,8.80
2022-08-09T11:38:22.377Z,8.52
2022-08-09T11:43:41.392Z,4.97
2022-08-09T11:48:52.251Z,4.38
2022-08-09T11:54:28.803Z,14.43
2022-08-09T11:59:37.928Z,12.45
2022-08-09T12:04:45.447Z,5.20
2022-08-09T12:09:54.014Z,10.80
2022-08-09T12:15:48.390Z,11.07
2022-08-09T12:20:46.486Z,5.53
2022-08-09T12:25:52.223Z,6.78
2022-08-09T12:30:57.784Z,7.22
2022-08-09T12:36:15.472Z,2.67
2022-08-09T12:41:39.078Z,6.82
2022-08-09T12:46:49.019Z,7.63
2022-08-09T12:52:02.567Z,4.18
2022-08-09T12:57:07.660Z,6.37
2022-08-09T13:02:15.176Z,3.88
2022-08-09T13:07:28.726Z,12.35
2022-08-09T13:12:59.861Z,7.15
2022-08-09T13:18:17.616Z,6.40
2022-08-09T13:24:42.590Z,7.90
2022-08-09T13:30:50.065Z,6.45
2022-08-09T13:36:24.699Z,11.10
2022-08-09T13:41:59.096Z,4.80
2022-08-09T13:47:26.445Z,4.07
2022-08-09T13:52:11.163Z,3.65
2022-08-09T13:57:35.681Z,5.43
2022-08-09T14:03:03.636Z,5.45
2022-08-09T14:08:08.166Z,5.55
2022-08-09T14:13:27.822Z,3.72
2022-08-09T14:18:45.194Z,3.95
2022-08-09T14:23:56.854Z,7.10
2022-08-09T14:29:07.793Z,5.25
2022-08-09T14:34:32.127Z,10.30
2022-08-09T14:39:45.851Z,5.63
2022-08-09T14:45:00.150Z,9.43
2022-08-09T14:50:05.916Z,9.05
2022-08-09T14:55:10.765Z,14.38
2022-08-09T15:00:16.282Z,11.38
2022-08-09T15:05:20.158Z,6.05
2022-08-09T15:10:25.037Z,7.90
2022-08-09T15:15:34.484Z,4.80
2022-08-09T15:21:57.973Z,3.80
2022-08-09T15:26:09.127Z,5.90
2022-08-09T15:31:28.563Z,8.70
2022-08-09T15:36:48.031Z,6.10
2022-08-09T15:41:52.204Z,7.18
2022-08-09T15:46:59.495Z,4.47
2022-08-09T15:52:06.086Z,4.05
2022-08-09T15:57:10.033Z,7.93
2022-08-09T16:02:15.408Z,3.97
2022-08-09T16:07:19.245Z,9.05
2022-08-09T16:12:23.366Z,6.60
2022-08-09T16:17:31.808Z,8.13
2022-08-09T16:22:42.444Z,10.35
2022-08-09T16:27:47.944Z,10.52
2022-08-09T16:33:15.739Z,7.38
2022-08-09T16:38:20.128Z,4.65
2022-08-09T16:43:26.645Z,9.85
2022-08-09T16:48:38.780Z,10.00
2022-08-09T16:54:24.877Z,4.53
2022-08-09T16:59:13.342Z,6.20
2022-08-09T17:04:25.655Z,4.20
2022-08-09T17:09:44.507Z,4.25
2022-08-09T17:14:57.642Z,7.28
2022-08-09T17:20:28.672Z,6.93
2022-08-09T17:25:30.524Z,11.48
2022-08-09T17:30:37.954Z,7.93
2022-08-09T17:35:44.295Z,10.35
2022-08-09T17:46:04.479Z,5.88
2022-08-09T17:51:19.486Z,3.95
2022-08-09T17:56:26.629Z,9.77
2022-08-09T18:01:40.840Z,11.43
2022-08-09T18:06:58.122Z,7.05
2022-08-09T18:12:14.673Z,8.82
2022-08-09T18:17:27.288Z,8.75
2022-08-09T18:22:51.272Z,7.10
2022-08-09T18:28:03.257Z,8.70
2022-08-09T18:33:12.761Z,10.88
2022-08-09T18:38:19.072Z,13.95
2022-08-09T18:43:23.888Z,12.43
2022-08-09T18:48:30.347Z,12.48
2022-08-09T18:53:59.596Z,11.85
2022-08-09T18:59:03.778Z,12.45
2022-08-09T19:04:09.046Z,14.38
2022-08-09T19:09:20.545Z,17.13
2022-08-09T19:14:39.098Z,13.18
2022-08-09T19:19:48.048Z,19.70
2022-08-09T19:25:11.632Z,18.50
2022-08-09T19:30:22.892Z,19.83
2022-08-09T19:35:57.668Z,18.05
2022-08-09T19:41:00.421Z,19.27
2022-08-09T19:46:04.927Z,20.48
2022-08-09T19:51:08.583Z,21.10
2022-08-09T19:56:15.404Z,16.90
2022-08-09T20:01:19.528Z,18.08
2022-08-09T20:06:29.810Z,17.25
2022-08-09T20:11:45.110Z,18.10
2022-08-09T20:16:56.924Z,18.98
2022-08-09T20:22:00.862Z,24.50
2022-08-09T20:27:08.545Z,22.80
2022-08-09T20:32:33.244Z,24.92
2022-08-09T20:38:22.081Z,19.35
2022-08-09T20:43:18.048Z,18.90
2022-08-09T20:48:29.089Z,12.07
2022-08-09T20:53:37.679Z,12.85
2022-08-09T20:58:44.164Z,23.33
2022-08-09T21:05:48.581Z,24.67
2022-08-09T21:09:14.084Z,20.05
2022-08-09T21:14:19.419Z,18.60
2022-08-09T21:20:17.722Z,18.10
2022-08-09T21:25:04.431Z,15.45
2022-08-09T21:30:11.035Z,15.00
2022-08-09T21:35:16.093Z,11.57
2022-08-09T21:40:29.995Z,15.55
2022-08-09T21:45:38.780Z,12.60
2022-08-09T21:50:43.408Z,12.30
2022-08-09T21:55:53.661Z,12.75
2022-08-09T22:00:58.679Z,14.48
2022-08-09T22:06:13.613Z,13.20
2022-08-09T22:12:09.548Z,14.85
2022-08-09T22:16:42.347Z,14.77
2022-08-09T22:21:51.054Z,11.23
2022-08-09T22:26:55.587Z,12.85
2022-08-09T22:32:00.827Z,13.77
2022-08-09T22:37:04.985Z,10.70
2022-08-09T22:42:22.172Z,18.92
2022-08-09T22:48:10.961Z,17.25
2022-08-09T22:52:57.647Z,18.27
2022-08-09T22:58:02.093Z,17.50
2022-08-09T23:03:12.559Z,12.88
2022-08-09T23:08:34.269Z,12.88
2022-08-09T23:13:38.237Z,10.05
2022-08-09T23:18:44.650Z,18.60
2022-08-09T23:24:04.960Z,12.15
2022-08-09T23:29:13.816Z,14.40
2022-08-09T23:34:19.257Z,9.35
2022-08-09T23:39:23.053Z,8.93
2022-08-09T23:44:26.899Z,12.52
2022-08-09T23:49:32.050Z,9.05
2022-08-09T23:54:35.748Z,18.30
2022-08-09T23:59:56.822Z,18.38
